Time;durP1;ratioP1;P1;durP2;ratioP2;P2;SDS_P1;SDS_P2;PMS_P1;PMS_P2;Temp;Humidity;BMP_temperature;BMP_pressure;BME280_temperature;BME280_humidity;BME280_pressure;Samples;Min_cycle;Max_cycle;Signal;HPM_P1;HPM_P2
2022/04/07 00:00:42;;;;;;;9.48;5.30;;;21.60;52.40;;;;;;5077688;28;20040;-70
2022/04/07 00:03:08;;;;;;;7.75;4.60;;;21.50;52.40;;;;;;5077484;28;20048;-71
2022/04/07 00:05:35;;;;;;;8.15;5.28;;;21.60;52.30;;;;;;5077211;28;20040;-71
2022/04/07 00:08:02;;;;;;;9.25;4.72;;;21.60;52.30;;;;;;5077489;28;20045;-71
2022/04/07 00:10:28;;;;;;;8.68;5.13;;;21.60;52.20;;;;;;5077414;28;20104;-71
2022/04/07 00:12:54;;;;;;;9.93;5.20;;;21.50;52.20;;;;;;5077051;28;20029;-71
2022/04/07 00:15:22;;;;;;;9.90;5.63;;;21.50;52.20;;;;;;5076469;28;20037;-70
2022/04/07 00:17:49;;;;;;;12.43;5.22;;;21.40;52.20;;;;;;5077171;28;20045;-71
2022/04/07 00:20:16;;;;;;;9.57;5.05;;;21.40;52.20;;;;;;5077372;28;20028;-70
2022/04/07 00:22:42;;;;;;;8.85;5.40;;;21.40;52.30;;;;;;5077181;28;20063;-71
2022/04/07 00:25:10;;;;;;;10.40;4.97;;;21.30;52.40;;;;;;5076714;28;20052;-70
2022/04/07 00:27:36;;;;;;;9.27;5.07;;;21.40;52.30;;;;;;5077230;28;20037;-71
2022/04/07 00:30:03;;;;;;;10.20;4.63;;;21.30;52.50;;;;;;5076498;28;20050;-71
2022/04/07 00:32:30;;;;;;;8.00;4.88;;;21.30;52.50;;;;;;5076267;28;20037;-71
2022/04/07 00:34:56;;;;;;;8.68;4.72;;;21.30;52.50;;;;;;5076976;28;20062;-71
2022/04/07 00:37:23;;;;;;;8.27;4.75;;;21.30;52.50;;;;;;5076720;28;20068;-71
2022/04/07 00:39:51;;;;;;;8.00;4.30;;;21.30;52.50;;;;;;5076680;28;20049;-71
2022/04/07 00:42:17;;;;;;;10.00;4.97;;;21.30;52.50;;;;;;5076904;28;20072;-71
2022/04/07 00:44:44;;;;;;;10.25;4.28;;;21.30;52.50;;;;;;5076592;28;20135;-71
2022/04/07 00:47:13;;;;;;;7.93;5.05;;;21.30;52.50;;;;;;5076787;28;20037;-71
2022/04/07 00:49:39;;;;;;;7.60;4.38;;;21.30;52.50;;;;;;5076062;28;20033;-71
2022/04/07 00:52:07;;;;;;;8.43;4.43;;;21.30;52.50;;;;;;5076705;28;20043;-71
2022/04/07 00:54:34;;;;;;;6.40;4.07;;;21.20;52.40;;;;;;5076523;28;20109;-71
2022/04/07 00:57:01;;;;;;;6.63;4.28;;;21.20;52.40;;;;;;5076581;28;20049;-71
2022/04/07 00:59:28;;;;;;;6.30;3.92;;;21.10;52.50;;;;;;5076012;28;20040;-71
2022/04/07 01:01:54;;;;;;;10.02;4.03;;;21.20;52.50;;;;;;5076578;28;20096;-71
2022/04/07 01:04:22;;;;;;;8.65;5.00;;;21.10;52.40;;;;;;5076510;28;20158;-71
2022/04/07 01:06:48;;;;;;;5.95;3.75;;;21.20;52.30;;;;;;5076250;28;20068;-71
2022/04/07 01:09:15;;;;;;;9.30;4.47;;;21.40;52.30;;;;;;5076733;28;20124;-71
2022/04/07 01:11:43;;;;;;;6.63;4.07;;;21.20;52.20;;;;;;5075902;28;20032;-71
2022/04/07 01:14:09;;;;;;;8.15;4.25;;;21.30;52.20;;;;;;5076414;28;20102;-71
2022/04/07 01:16:36;;;;;;;9.95;4.07;;;21.30;52.20;;;;;;5076349;28;20103;-71
2022/04/07 01:19:03;;;;;;;6.80;4.03;;;21.30;52.20;;;;;;5076451;28;20041;-71
2022/04/07 01:21:32;;;;;;;8.95;4.68;;;21.30;52.20;;;;;;5076260;28;20044;-71
2022/04/07 01:24:10;;;;;;;4.82;3.72;;;21.40;52.20;;;;;;5076429;28;20040;-71
2022/04/07 01:26:42;;;;;;;4.95;3.45;;;21.30;52.10;;;;;;5075814;28;20052;-71
2022/04/07 01:29:13;;;;;;;7.07;3.80;;;21.30;52.00;;;;;;5076222;28;20044;-71
2022/04/07 01:31:40;;;;;;;5.70;3.70;;;21.40;51.90;;;;;;5076353;28;20045;-71
2022/04/07 01:34:09;;;;;;;5.70;4.00;;;21.50;52.00;;;;;;5076288;28;20041;-71
2022/04/07 01:36:40;;;;;;;8.52;3.92;;;21.50;52.00;;;;;;5077477;28;20037;-71
2022/04/07 01:39:09;;;;;;;8.10;3.83;;;21.50;52.00;;;;;;5080123;28;20121;-71
2022/04/07 01:41:36;;;;;;;5.65;4.30;;;21.50;51.90;;;;;;5080282;28;20112;-71
2022/04/07 01:44:04;;;;;;;7.57;4.03;;;21.50;51.90;;;;;;5079718;28;20045;-71
2022/04/07 01:46:33;;;;;;;5.82;4.38;;;21.60;51.90;;;;;;5079910;28;20037;-71
2022/04/07 01:49:01;;;;;;;7.05;4.10;;;21.50;51.90;;;;;;5079996;28;20040;-71
2022/04/07 01:51:29;;;;;;;7.50;4.47;;;21.60;51.80;;;;;;5080150;28;20044;-71
2022/04/07 01:53:56;;;;;;;8.45;4.57;;;21.60;51.80;;;;;;5080008;28;20067;-71
2022/04/07 01:56:23;;;;;;;9.00;4.47;;;21.50;51.80;;;;;;5079480;28;20104;-71
2022/04/07 01:58:50;;;;;;;12.90;4.15;;;21.40;51.70;;;;;;5079922;28;20079;-71
2022/04/07 02:01:17;;;;;;;6.68;4.00;;;21.50;51.80;;;;;;5079839;28;20048;-71
2022/04/07 02:03:45;;;;;;;6.60;3.75;;;21.60;51.70;;;;;;5079355;28;20052;-71
2022/04/07 02:06:18;;;;;;;4.50;3.53;;;21.60;51.70;;;;;;5079587;28;20101;-71
2022/04/07 02:08:45;;;;;;;6.13;4.35;;;21.50;51.70;;;;;;5079835;28;20060;-71
2022/04/07 02:11:12;;;;;;;5.38;4.22;;;21.50;51.70;;;;;;5079497;28;20064;-71
2022/04/07 02:13:39;;;;;;;6.75;3.95;;;21.50;51.80;;;;;;5079726;28;20043;-71
2022/04/07 02:16:08;;;;;;;7.55;4.03;;;21.40;51.70;;;;;;5079352;28;20044;-71
2022/04/07 02:18:35;;;;;;;6.70;4.32;;;21.40;51.70;;;;;;5079447;28;20041;-71
2022/04/07 02:21:02;;;;;;;5.80;4.03;;;21.40;51.70;;;;;;5079541;28;20080;-71
2022/04/07 02:23:27;;;;;;;6.38;4.25;;;21.30;51.70;;;;;;5079164;28;20033;-71
2022/04/07 02:25:54;;;;;;;10.10;4.20;;;21.40;51.80;;;;;;5079003;28;20037;-71
2022/04/07 02:28:21;;;;;;;8.50;3.95;;;21.40;51.80;;;;;;5079414;28;20060;-71
2022/04/07 02:30:48;;;;;;;9.52;4.40;;;21.40;51.80;;;;;;5079159;28;20066;-70
2022/04/07 02:33:14;;;;;;;8.23;4.68;;;21.40;51.70;;;;;;5079149;28;20040;-71
2022/04/07 02:35:42;;;;;;;8.32;4.40;;;21.50;51.70;;;;;;5078943;28;20043;-70
2022/04/07 02:38:08;;;;;;;8.20;4.68;;;21.50;51.70;;;;;;5078276;28;20033;-71
2022/04/07 02:40:34;;;;;;;6.85;4.22;;;21.50;51.60;;;;;;5079160;28;20425;-70
2022/04/07 02:43:00;;;;;;;7.68;4.40;;;21.50;51.60;;;;;;5079026;28;20109;-71
2022/04/07 02:45:27;;;;;;;7.70;5.30;;;21.50;51.50;;;;;;5078685;28;20056;-71
2022/04/07 02:47:53;;;;;;;8.50;4.80;;;21.40;51.40;;;;;;5077670;28;20041;-71
2022/04/07 02:50:19;;;;;;;10.68;4.55;;;21.50;51.50;;;;;;5078989;28;20097;-71
2022/04/07 02:52:45;;;;;;;13.55;5.15;;;21.50;51.40;;;;;;5078776;28;20032;-71
2022/04/07 02:55:11;;;;;;;13.45;5.20;;;21.40;51.40;;;;;;5078820;28;20041;-70
2022/04/07 02:57:37;;;;;;;7.15;4.72;;;21.50;51.50;;;;;;5078624;28;20100;-71
2022/04/07 03:00:05;;;;;;;10.50;4.70;;;21.40;51.50;;;;;;5078694;28;20037;-71
2022/04/07 03:02:31;;;;;;;8.68;4.55;;;21.30;51.60;;;;;;5078742;28;20059;-71
2022/04/07 03:04:58;;;;;;;8.55;4.40;;;21.30;51.60;;;;;;5078597;28;20071;-71
2022/04/07 03:07:24;;;;;;;6.20;4.25;;;21.30;51.60;;;;;;5078335;28;20060;-71
2022/04/07 03:09:50;;;;;;;5.90;4.35;;;21.30;51.70;;;;;;5077992;28;20052;-71
2022/04/07 03:12:17;;;;;;;11.57;5.07;;;21.30;51.80;;;;;;5078597;28;20048;-71
2022/04/07 03:14:44;;;;;;;7.13;4.75;;;21.30;51.70;;;;;;5078275;28;20137;-71
2022/04/07 03:17:10;;;;;;;7.40;4.28;;;21.30;51.70;;;;;;5078300;28;20044;-71
2022/04/07 03:19:37;;;;;;;6.90;5.13;;;21.30;51.60;;;;;;5078486;28;20072;-70
2022/04/07 03:22:03;;;;;;;7.05;4.97;;;21.30;51.60;;;;;;5078195;28;20102;-71
2022/04/07 03:24:29;;;;;;;5.30;3.90;;;21.30;51.50;;;;;;5077755;28;20057;-71
2022/04/07 03:26:56;;;;;;;6.90;4.78;;;21.20;51.30;;;;;;5078208;28;20044;-71
2022/04/07 03:29:22;;;;;;;10.75;4.68;;;21.20;51.50;;;;;;5078110;28;20101;-71
2022/04/07 03:31:48;;;;;;;6.88;4.53;;;21.20;51.50;;;;;;5078222;28;20037;-71
2022/04/07 03:34:15;;;;;;;9.15;4.28;;;21.30;51.60;;;;;;5077992;28;20045;-71
2022/04/07 03:36:42;;;;;;;5.68;4.30;;;21.20;51.40;;;;;;5077754;28;20036;-70
2022/04/07 03:39:09;;;;;;;8.98;4.50;;;21.40;51.40;;;;;;5077907;28;20084;-70
2022/04/07 03:41:35;;;;;;;7.47;4.72;;;21.50;51.10;;;;;;5077862;28;20041;-71
2022/04/07 03:44:03;;;;;;;9.48;4.75;;;21.50;50.90;;;;;;5077852;28;20108;-71
2022/04/07 03:46:30;;;;;;;5.03;4.22;;;21.50;50.90;;;;;;5077566;28;20045;-71
2022/04/07 03:48:56;;;;;;;7.32;4.35;;;21.60;50.80;;;;;;5077711;28;20081;-71
2022/04/07 03:51:22;;;;;;;6.28;4.25;;;21.50;50.80;;;;;;5077042;28;20037;-71
2022/04/07 03:53:49;;;;;;;7.28;4.72;;;21.60;51.00;;;;;;5076845;28;20071;-71
2022/04/07 03:56:15;;;;;;;5.95;3.60;;;21.60;51.00;;;;;;5076818;28;20048;-71
2022/04/07 03:58:41;;;;;;;5.57;4.05;;;21.60;50.70;;;;;;5077082;28;20045;-71
2022/04/07 04:01:09;;;;;;;9.20;4.43;;;21.70;50.60;;;;;;5077093;28;20045;-71
2022/04/07 04:03:35;;;;;;;10.38;4.00;;;21.70;50.60;;;;;;5076732;28;20087;-70
2022/04/07 04:06:02;;;;;;;8.80;4.72;;;21.80;50.60;;;;;;5076642;28;20041;-71
2022/04/07 04:08:28;;;;;;;7.82;4.82;;;21.90;50.80;;;;;;5076724;28;20037;-71
2022/04/07 04:10:54;;;;;;;6.45;3.42;;;21.90;50.80;;;;;;5076470;28;20036;-72
2022/04/07 04:13:20;;;;;;;8.77;4.43;;;21.80;53.00;;;;;;5076784;28;20037;-72
2022/04/07 04:15:47;;;;;;;11.48;4.80;;;22.00;54.80;;;;;;5076432;28;20041;-73
2022/04/07 04:18:13;;;;;;;5.60;3.47;;;22.30;55.40;;;;;;5076534;28;20099;-73
2022/04/07 04:20:40;;;;;;;7.38;4.75;;;22.60;55.60;;;;;;5076710;28;20104;-73
2022/04/07 04:23:06;;;;;;;8.13;4.05;;;22.70;54.90;;;;;;5076317;28;20068;-73
2022/04/07 04:25:32;;;;;;;6.10;3.65;;;22.60;49.80;;;;;;5076045;28;20037;-73
2022/04/07 04:27:58;;;;;;;8.57;4.47;;;22.60;47.50;;;;;;5076349;28;20049;-73
2022/04/07 04:30:25;;;;;;;9.18;5.47;;;22.40;47.30;;;;;;5076496;28;20044;-71
2022/04/07 04:32:52;;;;;;;9.18;5.82;;;22.50;46.70;;;;;;5076456;28;20032;-71
2022/04/07 04:35:18;;;;;;;7.10;4.80;;;22.40;46.80;;;;;;5076277;28;20070;-71
2022/04/07 04:37:44;;;;;;;10.82;5.43;;;22.20;46.60;;;;;;5076010;28;20096;-71
2022/04/07 04:40:11;;;;;;;15.07;5.15;;;22.20;47.00;;;;;;5075492;28;20060;-70
2022/04/07 04:42:40;;;;;;;8.00;5.13;;;22.10;47.50;;;;;;5076011;28;20044;-70
2022/04/07 04:45:07;;;;;;;8.65;5.50;;;22.10;48.00;;;;;;5075814;28;20045;-70
2022/04/07 04:47:33;;;;;;;11.35;5.28;;;22.00;48.40;;;;;;5075941;28;20033;-71
2022/04/07 04:49:59;;;;;;;12.45;5.95;;;22.00;48.80;;;;;;5075616;28;20052;-71
2022/04/07 04:52:25;;;;;;;12.50;5.72;;;22.00;49.20;;;;;;5075781;28;20037;-71
2022/04/07 04:54:53;;;;;;;5.22;3.92;;;22.00;49.50;;;;;;5076051;28;20056;-73
2022/04/07 04:57:19;;;;;;;9.07;3.92;;;22.00;45.40;;;;;;5075829;28;20032;-73
2022/04/07 04:59:45;;;;;;;4.95;3.05;;;22.10;46.60;;;;;;5075666;28;20159;-73
2022/04/07 05:02:11;;;;;;;6.38;3.35;;;22.00;46.40;;;;;;5075990;28;20123;-72
2022/04/07 05:04:37;;;;;;;6.13;3.42;;;22.30;47.10;;;;;;5075885;28;20052;-73
2022/04/07 05:07:03;;;;;;;8.93;4.00;;;22.30;43.00;;;;;;5073076;28;20053;-72
2022/04/07 05:09:29;;;;;;;7.63;3.95;;;22.20;43.20;;;;;;5055596;28;20060;-72
2022/04/07 05:11:55;;;;;;;7.80;4.28;;;22.40;46.60;;;;;;5054255;28;20038;-71
2022/04/07 05:14:22;;;;;;;11.40;4.13;;;22.30;42.10;;;;;;5055525;28;20048;-71
2022/04/07 05:16:48;;;;;;;9.20;5.22;;;22.20;44.00;;;;;;5071083;28;20037;-71
2022/04/07 05:19:14;;;;;;;9.00;4.60;;;22.20;43.40;;;;;;5074964;28;20120;-72
2022/04/07 05:21:40;;;;;;;8.57;5.03;;;22.20;43.40;;;;;;5075389;28;20045;-71
2022/04/07 05:24:10;;;;;;;6.90;4.32;;;22.10;43.30;;;;;;5074132;28;20045;-71
2022/04/07 05:26:37;;;;;;;10.25;5.75;;;22.10;45.30;;;;;;5072729;28;20029;-71
2022/04/07 05:29:04;;;;;;;10.05;4.30;;;22.20;44.00;;;;;;5073369;28;20041;-71
2022/04/07 05:31:30;;;;;;;6.88;4.47;;;22.30;40.50;;;;;;5075303;28;20063;-71
2022/04/07 05:33:56;;;;;;;11.70;5.03;;;22.40;50.50;;;;;;5075025;28;20049;-71
2022/04/07 05:36:22;;;;;;;6.57;4.53;;;22.50;52.30;;;;;;5075306;28;20045;-68
2022/04/07 05:38:48;;;;;;;7.03;5.20;;;22.50;51.80;;;;;;5075041;28;20053;-69
2022/04/07 05:41:14;;;;;;;7.63;4.85;;;22.50;52.80;;;;;;5074916;28;20071;-69
2022/04/07 05:43:40;;;;;;;10.40;5.25;;;22.50;53.30;;;;;;5075087;28;20041;-70
2022/04/07 05:46:07;;;;;;;9.20;4.68;;;22.60;53.80;;;;;;5075124;28;20052;-71
2022/04/07 05:48:33;;;;;;;9.80;5.40;;;22.50;52.80;;;;;;5074863;28;20043;-69
2022/04/07 05:50:59;;;;;;;6.32;4.40;;;22.60;54.50;;;;;;5075013;28;20091;-69
2022/04/07 05:53:25;;;;;;;6.25;4.85;;;22.50;54.70;;;;;;5075191;28;20048;-70
2022/04/07 05:55:52;;;;;;;7.47;5.30;;;22.50;51.60;;;;;;5075053;28;20037;-72
2022/04/07 05:58:19;;;;;;;6.93;5.38;;;22.40;52.10;;;;;;5075086;28;20040;-70
2022/04/07 06:00:45;;;;;;;10.80;4.60;;;22.40;49.10;;;;;;5075041;28;20051;-70
2022/04/07 06:03:12;;;;;;;8.88;4.60;;;22.40;53.20;;;;;;5075064;28;20051;-70
2022/04/07 06:05:38;;;;;;;8.13;5.93;;;22.50;53.80;;;;;;5074712;28;20057;-70
2022/04/07 06:08:05;;;;;;;7.13;5.10;;;22.50;52.80;;;;;;5075242;28;20048;-69
2022/04/07 06:10:31;;;;;;;6.82;4.60;;;22.50;54.40;;;;;;5074228;28;20071;-69
2022/04/07 06:12:57;;;;;;;6.32;4.95;;;22.40;54.50;;;;;;5075258;28;20533;-72
2022/04/07 06:15:25;;;;;;;7.57;4.75;;;22.40;54.80;;;;;;5074536;28;20045;-73
2022/04/07 06:17:52;;;;;;;6.97;4.65;;;22.60;55.20;;;;;;5072450;28;20037;-70
2022/04/07 06:20:18;;;;;;;6.90;4.00;;;22.50;55.10;;;;;;5075046;28;20076;-69
2022/04/07 06:22:45;;;;;;;8.52;4.57;;;22.60;54.90;;;;;;5076648;28;20047;-69
2022/04/07 06:25:13;;;;;;;9.93;5.35;;;22.50;53.30;;;;;;5078584;28;20120;-70
2022/04/07 06:27:41;;;;;;;8.00;4.57;;;22.50;54.30;;;;;;5078729;28;20029;-71
2022/04/07 06:30:10;;;;;;;8.88;5.30;;;22.60;55.10;;;;;;5078315;28;20072;-72
2022/04/07 06:32:37;;;;;;;9.20;4.80;;;22.40;54.50;;;;;;5078699;28;20063;-71
2022/04/07 06:35:05;;;;;;;7.00;4.57;;;22.50;54.70;;;;;;5077857;28;20036;-69
2022/04/07 06:37:31;;;;;;;6.55;4.93;;;22.50;55.40;;;;;;5078470;28;20055;-70
2022/04/07 06:40:01;;;;;;;3.90;3.60;;;22.60;54.90;;;;;;5078255;28;20060;-70
2022/04/07 06:42:27;;;;;;;6.90;4.10;;;22.60;55.40;;;;;;5078129;28;20094;-70
2022/04/07 06:44:57;;;;;;;7.80;4.80;;;22.50;54.20;;;;;;5077717;28;20074;-70
2022/04/07 06:47:23;;;;;;;8.60;3.63;;;22.50;53.20;;;;;;5078278;28;20051;-69
2022/04/07 06:49:52;;;;;;;5.90;4.15;;;22.60;55.30;;;;;;5058125;28;20041;-69
2022/04/07 06:52:19;;;;;;;6.13;4.03;;;22.50;55.10;;;;;;5068322;28;20091;-69
2022/04/07 06:54:45;;;;;;;6.07;4.63;;;22.50;54.20;;;;;;5077530;28;20036;-69
2022/04/07 06:57:11;;;;;;;7.25;4.47;;;22.50;55.00;;;;;;5078189;28;20037;-70
2022/04/07 06:59:38;;;;;;;7.00;4.43;;;22.70;54.50;;;;;;5077732;28;20051;-70
2022/04/07 07:02:04;;;;;;;6.32;3.95;;;22.70;54.20;;;;;;5077441;28;20041;-69
2022/04/07 07:04:32;;;;;;;6.72;3.83;;;22.70;53.00;;;;;;5077807;28;20064;-70
2022/04/07 07:06:58;;;;;;;8.48;3.80;;;22.60;53.40;;;;;;5077702;28;20041;-69
2022/04/07 07:09:25;;;;;;;4.57;3.33;;;22.60;53.70;;;;;;5077885;28;20051;-69
2022/04/07 07:11:52;;;;;;;6.05;3.95;;;22.70;51.90;;;;;;5077445;28;20044;-70
2022/04/07 07:14:18;;;;;;;10.05;4.20;;;22.60;53.20;;;;;;5077663;28;20074;-78
2022/04/07 07:16:44;;;;;;;5.95;3.83;;;22.70;51.00;;;;;;5077750;28;20100;-74
2022/04/07 07:19:10;;;;;;;9.93;3.10;;;22.60;48.80;;;;;;5076891;28;20071;-68
2022/04/07 07:21:37;;;;;;;5.57;4.10;;;22.50;49.50;;;;;;5077562;28;20109;-67
2022/04/07 07:24:03;;;;;;;8.32;4.25;;;22.50;50.00;;;;;;5077533;28;20065;-67
2022/04/07 07:26:30;;;;;;;9.25;4.20;;;22.50;46.80;;;;;;5075391;28;20099;-67
2022/04/07 07:28:56;;;;;;;4.22;3.47;;;22.60;49.70;;;;;;5077200;28;20033;-67
2022/04/07 07:31:22;;;;;;;4.10;2.63;;;22.60;49.10;;;;;;5077381;28;20051;-68
2022/04/07 07:33:48;;;;;;;7.85;3.33;;;22.50;49.50;;;;;;5076618;28;20028;-69
2022/04/07 07:36:15;;;;;;;6.50;3.85;;;22.60;49.60;;;;;;5077254;28;20051;-69
2022/04/07 07:38:41;;;;;;;1.95;1.80;;;22.50;44.90;;;;;;5077154;28;20147;-69
2022/04/07 07:41:07;;;;;;;5.45;3.45;;;22.60;44.80;;;;;;5077247;28;20103;-69
2022/04/07 07:43:33;;;;;;;2.83;1.60;;;22.60;44.80;;;;;;5076872;28;20047;-69
2022/04/07 07:45:59;;;;;;;9.48;4.10;;;22.60;43.50;;;;;;5076784;28;20033;-69
2022/04/07 07:48:29;;;;;;;7.22;4.25;;;22.60;43.70;;;;;;5059745;28;20040;-68
2022/04/07 07:50:58;;;;;;;2.35;2.13;;;22.60;43.80;;;;;;5076986;28;20112;-72
2022/04/07 07:53:24;;;;;;;1.63;1.52;;;22.70;42.90;;;;;;5077097;28;20041;-71
2022/04/07 07:55:53;;;;;;;5.50;3.65;;;22.70;43.00;;;;;;5076734;28;20037;-71
2022/04/07 07:58:19;;;;;;;3.97;3.13;;;22.60;41.70;;;;;;5077090;28;20033;-70
2022/04/07 08:00:46;;;;;;;4.70;2.33;;;22.70;42.30;;;;;;5076855;28;20067;-71
2022/04/07 08:03:12;;;;;;;4.75;3.67;;;22.60;42.00;;;;;;5076993;28;20037;-74
2022/04/07 08:05:38;;;;;;;5.70;3.83;;;22.70;40.80;;;;;;5076773;28;20041;-73
2022/04/07 08:08:05;;;;;;;10.20;4.20;;;22.60;41.10;;;;;;5076292;28;20071;-78
2022/04/07 08:10:31;;;;;;;8.52;3.85;;;22.60;40.70;;;;;;5076785;28;20032;-74
2022/04/07 08:12:57;;;;;;;6.53;3.50;;;22.50;37.30;;;;;;5076653;28;20041;-71
2022/04/07 08:15:24;;;;;;;9.75;4.28;;;22.60;39.20;;;;;;5075967;28;20041;-71
2022/04/07 08:17:51;;;;;;;14.00;2.72;;;22.60;39.10;;;;;;5076610;28;20108;-70
2022/04/07 08:20:18;;;;;;;6.85;3.55;;;22.60;38.70;;;;;;5076759;28;20049;-70
2022/04/07 08:22:44;;;;;;;9.38;3.45;;;22.60;38.80;;;;;;5076269;28;20047;-72
2022/04/07 08:25:11;;;;;;;8.82;4.65;;;22.60;40.00;;;;;;5076067;28;20052;-72
2022/04/07 08:27:37;;;;;;;5.10;4.60;;;22.60;40.70;;;;;;5075919;28;20072;-71
2022/04/07 08:30:04;;;;;;;7.60;4.70;;;22.60;41.70;;;;;;5075797;28;20037;-71
2022/04/07 08:32:33;;;;;;;3.75;2.30;;;22.50;40.50;;;;;;5076367;28;20033;-72
2022/04/07 08:35:01;;;;;;;4.65;2.50;;;22.60;41.70;;;;;;5076258;28;20040;-71
2022/04/07 08:37:27;;;;;;;4.95;3.28;;;22.60;42.70;;;;;;5076036;28;20044;-71
2022/04/07 08:39:53;;;;;;;4.13;3.22;;;22.60;42.10;;;;;;5075331;28;20887;-71
2022/04/07 08:42:23;;;;;;;5.90;3.97;;;22.60;41.70;;;;;;5076210;28;20049;-73
2022/04/07 08:44:49;;;;;;;8.48;4.53;;;22.60;41.10;;;;;;5075798;28;20074;-73
2022/04/07 08:47:18;;;;;;;6.43;4.50;;;22.50;42.20;;;;;;5075280;28;20032;-73
2022/04/07 08:49:46;;;;;;;8.02;5.15;;;22.60;43.30;;;;;;5074774;28;20097;-72
2022/04/07 08:52:12;;;;;;;6.95;3.67;;;22.70;41.60;;;;;;5076122;28;20231;-72
2022/04/07 08:54:39;;;;;;;6.53;3.90;;;22.90;43.90;;;;;;5075392;28;20179;-71
2022/04/07 08:57:05;;;;;;;8.27;4.38;;;23.20;43.00;;;;;;5075602;28;20037;-71
2022/04/07 08:59:32;;;;;;;5.50;3.58;;;23.40;43.50;;;;;;5075901;28;20048;-71
2022/04/07 09:02:03;;;;;;;5.95;4.55;;;23.20;43.80;;;;;;5074794;28;20037;-70
2022/04/07 09:04:31;;;;;;;5.63;3.47;;;23.20;41.90;;;;;;5075267;28;20076;-70
2022/04/07 09:06:58;;;;;;;4.65;4.00;;;23.10;41.80;;;;;;5075811;28;20202;-70
2022/04/07 09:09:24;;;;;;;7.80;4.60;;;23.20;43.60;;;;;;5075798;28;20044;-78
2022/04/07 09:11:56;;;;;;;7.18;4.32;;;23.10;41.10;;;;;;5075588;28;20033;-73
2022/04/07 09:14:23;;;;;;;9.63;4.45;;;23.00;41.40;;;;;;5075799;28;20071;-72
2022/04/07 09:16:55;;;;;;;5.63;3.08;;;23.10;40.40;;;;;;5075483;28;20048;-72
2022/04/07 09:19:22;;;;;;;3.58;2.72;;;23.00;43.90;;;;;;5075213;28;20048;-73
2022/04/07 09:22:06;;;;;;;4.35;3.83;;;23.00;40.70;;;;;;5075834;28;20045;-73
2022/04/07 09:24:36;;;;;;;12.07;4.85;;;23.00;42.30;;;;;;5074639;28;20049;-78
2022/04/07 09:27:04;;;;;;;12.05;3.47;;;22.90;40.00;;;;;;5075351;28;20044;-70
2022/04/07 09:29:41;;;;;;;7.70;3.55;;;22.90;41.90;;;;;;5075622;28;20047;-71
2022/04/07 09:32:18;;;;;;;6.82;3.97;;;22.90;43.20;;;;;;5075566;28;20043;-70
2022/04/07 09:34:45;;;;;;;9.00;4.13;;;22.90;40.70;;;;;;5075548;28;20041;-70
2022/04/07 09:37:12;;;;;;;7.10;3.78;;;22.80;42.60;;;;;;5075374;28;20044;-70
2022/04/07 09:39:40;;;;;;;4.75;3.42;;;22.90;43.40;;;;;;5075119;28;20051;-70
2022/04/07 09:42:20;;;;;;;5.70;3.40;;;22.90;44.40;;;;;;5075414;28;20047;-71
2022/04/07 09:44:57;;;;;;;9.10;3.90;;;23.00;44.60;;;;;;5074285;28;20080;-70
2022/04/07 09:47:39;;;;;;;3.97;2.72;;;23.10;42.70;;;;;;5074311;28;20062;-70
2022/04/07 09:50:19;;;;;;;8.00;3.75;;;23.20;51.30;;;;;;5075244;28;20033;-71
2022/04/07 09:53:05;;;;;;;4.50;4.05;;;23.30;44.40;;;;;;5075560;28;20037;-71
2022/04/07 09:55:35;;;;;;;5.47;3.92;;;23.50;40.10;;;;;;5074894;28;20121;-71
2022/04/07 09:58:03;;;;;;;5.20;3.08;;;23.50;37.70;;;;;;5076696;28;20040;-71
2022/04/07 10:00:29;;;;;;;6.63;3.78;;;23.40;38.30;;;;;;5079105;28;20041;-71
2022/04/07 10:02:56;;;;;;;7.07;4.03;;;23.50;41.00;;;;;;5078796;28;20079;-70
2022/04/07 10:05:26;;;;;;;5.35;3.78;;;23.60;48.40;;;;;;5078920;28;20060;-70
2022/04/07 10:07:52;;;;;;;5.20;3.65;;;23.80;43.80;;;;;;5079068;28;20045;-71
2022/04/07 10:10:19;;;;;;;6.38;3.90;;;24.00;46.90;;;;;;5078794;28;20033;-71
2022/04/07 10:12:46;;;;;;;5.88;3.60;;;24.20;45.70;;;;;;5097996;28;20040;-70
2022/04/07 10:15:14;;;;;;;5.80;3.50;;;24.10;43.20;;;;;;5096308;28;20062;-71
2022/04/07 10:17:41;;;;;;;4.65;3.70;;;24.10;44.70;;;;;;5077439;28;20044;-70
2022/04/07 10:20:11;;;;;;;7.80;4.18;;;24.00;44.60;;;;;;5077251;28;20067;-70
2022/04/07 10:22:56;;;;;;;9.57;3.83;;;23.90;42.80;;;;;;5078679;28;20060;-70
2022/04/07 10:25:24;;;;;;;4.38;3.72;;;23.80;45.40;;;;;;5077860;28;20052;-70
2022/04/07 10:27:54;;;;;;;6.97;4.15;;;23.80;40.30;;;;;;5078498;28;20064;-70
2022/04/07 10:30:21;;;;;;;8.02;3.83;;;23.80;45.20;;;;;;5078531;28;20116;-69
2022/04/07 10:32:52;;;;;;;4.35;3.30;;;23.70;43.00;;;;;;5078746;28;20041;-70
2022/04/07 10:35:31;;;;;;;5.18;4.05;;;23.60;46.40;;;;;;5078481;28;20040;-70
2022/04/07 10:37:59;;;;;;;7.75;3.30;;;23.60;45.80;;;;;;5078457;28;20055;-71
2022/04/07 10:40:37;;;;;;;9.77;3.50;;;23.70;47.00;;;;;;5078584;28;20080;-70
2022/04/07 10:43:14;;;;;;;6.57;3.53;;;23.70;45.20;;;;;;5077613;28;20083;-70
2022/04/07 10:45:43;;;;;;;5.47;3.60;;;23.60;44.60;;;;;;5078332;28;20113;-70
2022/04/07 10:48:25;;;;;;;7.13;2.67;;;23.60;45.20;;;;;;5078366;28;20088;-70
2022/04/07 10:50:55;;;;;;;3.95;2.83;;;23.60;46.70;;;;;;5078031;28;20124;-70
2022/04/07 10:53:30;;;;;;;7.22;3.40;;;23.60;47.20;;;;;;5067467;28;20040;-70
2022/04/07 10:56:24;;;;;;;4.20;2.72;;;23.50;47.30;;;;;;5058330;28;20046;-70
2022/04/07 10:58:56;;;;;;;9.25;3.50;;;23.70;45.10;;;;;;5058124;28;20089;-70
2022/04/07 11:01:29;;;;;;;5.10;3.50;;;23.60;45.80;;;;;;5090636;28;20061;-70
2022/04/07 11:04:22;;;;;;;4.47;2.63;;;23.50;43.00;;;;;;5074941;28;20045;-70
2022/04/07 11:07:17;;;;;;;5.07;2.50;;;23.50;43.60;;;;;;5077906;28;20108;-70
2022/04/07 11:09:49;;;;;;;3.75;2.47;;;23.50;47.40;;;;;;5076321;28;20041;-70
2022/04/07 11:12:28;;;;;;;2.42;1.85;;;23.50;48.40;;;;;;5077668;28;20076;-84
2022/04/07 11:15:01;;;;;;;2.92;1.65;;;23.40;47.20;;;;;;5060655;28;20044;-69
2022/04/07 11:17:35;;;;;;;3.78;2.67;;;23.40;47.90;;;;;;5077617;28;20167;-69
2022/04/07 11:20:18;;;;;;;4.85;2.28;;;23.50;46.10;;;;;;5077689;28;20041;-68
2022/04/07 11:23:04;;;;;;;3.28;2.60;;;23.40;47.20;;;;;;5077894;28;20037;-78
2022/04/07 11:25:37;;;;;;;5.05;2.53;;;23.30;45.00;;;;;;5077570;28;20044;-77
2022/04/07 11:28:17;;;;;;;4.80;2.95;;;23.40;38.90;;;;;;5077064;28;20041;-77
2022/04/07 11:31:00;;;;;;;13.73;2.83;;;23.30;45.30;;;;;;5077721;28;20065;-75
2022/04/07 11:33:30;;;;;;;3.08;2.55;;;23.30;44.40;;;;;;5077363;28;20036;-75
2022/04/07 11:35:59;;;;;;;2.67;1.63;;;23.40;38.30;;;;;;5077358;28;20099;-77
2022/04/07 11:38:34;;;;;;;2.47;2.28;;;23.30;41.30;;;;;;5077062;28;20041;-73
2022/04/07 11:41:09;;;;;;;4.40;2.00;;;23.40;41.90;;;;;;5075255;28;20052;-73
2022/04/07 11:43:42;;;;;;;4.03;1.55;;;23.40;42.50;;;;;;5075386;28;20044;-72
2022/04/07 11:46:12;;;;;;;3.45;2.28;;;23.40;43.90;;;;;;5075169;28;20041;-72
2022/04/07 11:48:40;;;;;;;4.30;1.70;;;23.30;38.90;;;;;;5075344;28;20037;-72
2022/04/07 11:51:17;;;;;;;2.00;1.50;;;23.30;43.60;;;;;;5074881;28;20037;-72
2022/04/07 11:53:52;;;;;;;3.20;1.83;;;23.30;43.60;;;;;;5074999;28;20037;-72
2022/04/07 11:56:21;;;;;;;3.13;2.17;;;23.40;44.30;;;;;;5076537;28;20057;-72
2022/04/07 11:58:54;;;;;;;3.80;1.42;;;23.30;44.30;;;;;;5076429;28;20051;-73
2022/04/07 12:01:21;;;;;;;3.00;2.10;;;23.30;42.60;;;;;;5076980;28;20025;-72
2022/04/07 12:03:54;;;;;;;3.42;1.63;;;23.40;44.20;;;;;;5076759;28;20056;-72
2022/04/07 12:06:25;;;;;;;5.72;1.60;;;23.20;42.90;;;;;;5076766;28;20041;-73
2022/04/07 12:08:52;;;;;;;3.88;1.30;;;23.20;41.30;;;;;;5076049;28;20041;-73
2022/04/07 12:11:20;;;;;;;1.88;1.63;;;23.20;42.10;;;;;;5076951;28;20043;-73
2022/04/07 12:13:49;;;;;;;2.78;1.27;;;23.20;44.40;;;;;;5076740;28;20067;-72
2022/04/07 12:16:15;;;;;;;3.33;1.38;;;23.30;43.00;;;;;;5076722;28;20045;-72
2022/04/07 12:18:51;;;;;;;3.50;2.50;;;23.20;45.70;;;;;;5076643;28;20045;-72
2022/04/07 12:21:17;;;;;;;7.50;4.53;;;23.20;43.90;;;;;;5076395;28;20044;-73
2022/04/07 12:23:44;;;;;;;7.65;3.83;;;23.10;40.40;;;;;;5075676;28;20041;-72
2022/04/07 12:26:11;;;;;;;4.40;1.52;;;23.10;42.50;;;;;;5076569;28;20079;-72
2022/04/07 12:28:40;;;;;;;5.20;4.03;;;23.20;45.10;;;;;;5075618;28;20037;-72
2022/04/07 12:31:32;;;;;;;7.72;4.45;;;23.20;45.30;;;;;;5076466;28;20032;-72
2022/04/07 12:34:07;;;;;;;7.55;3.05;;;23.20;43.10;;;;;;5076293;28;20043;-72
2022/04/07 12:36:35;;;;;;;5.22;2.25;;;23.20;44.50;;;;;;5058627;28;20128;-73
2022/04/07 12:39:08;;;;;;;4.22;2.50;;;23.20;45.20;;;;;;5071745;28;20121;-73
2022/04/07 12:41:43;;;;;;;6.25;2.72;;;23.20;43.70;;;;;;5054059;28;20045;-74
2022/04/07 12:44:16;;;;;;;7.97;2.50;;;23.20;46.40;;;;;;5056257;28;20091;-74
2022/04/07 12:46:54;;;;;;;5.72;2.42;;;23.20;44.10;;;;;;5055981;28;20029;-75
2022/04/07 12:49:32;;;;;;;5.30;1.98;;;23.20;45.50;;;;;;5055924;28;20185;-75
2022/04/07 12:52:06;;;;;;;1.73;1.63;;;23.10;43.50;;;;;;5055955;28;20037;-74